MMCM

Chetumal International Airport

Airport
ICAO code
MMCM
IATA Code
CTM
Summary
ICAO Region
CARSAM
ICAO Territory
Location

Chetumal, Quintana Roo

Serving
Chetumal
Elevation
39 ft
Coordinates
18° 30' 17" N , 88° 19' 37" W
KCC
Metar
MMCM 261945Z 13015KT 7SM SCT020 32/25 A2983 RMK 8/500 HZY

International airport located in Chetumal, Quintana Roo, Mexico.

Climatology

Tropical savannah climate (Köppen climate classification Aw)

Runways

Designator Length Width Surface Rops
10/28 2208 46 ASP No/No

Airport map

Aerial View

SKYbrary Partners:

Safety knowledge contributed by: